Time;durP1;ratioP1;P1;durP2;ratioP2;P2;SDS_P1;SDS_P2;PMS_P1;PMS_P2;Temp;Humidity;BMP_temperature;BMP_pressure;BME280_temperature;BME280_humidity;BME280_pressure;Samples;Min_cycle;Max_cycle;Signal;HPM_P1;HPM_P2
2023/03/01 00:01:48;;;;;;;9.63;5.90;;;;;;;16.94;39.38;101276.09;5072210;28;20485;-66
2023/03/01 00:04:18;;;;;;;10.50;5.82;;;;;;;16.91;39.31;101279.03;5075104;28;20397;-67
2023/03/01 00:06:47;;;;;;;10.48;6.10;;;;;;;16.83;39.31;101260.69;5074986;28;20563;-67
2023/03/01 00:09:16;;;;;;;9.75;5.82;;;;;;;16.84;39.47;101270.50;5074919;28;20105;-66
2023/03/01 00:11:45;;;;;;;8.82;5.50;;;;;;;16.82;39.39;101280.53;5074772;28;20052;-67
2023/03/01 00:14:16;;;;;;;8.85;5.80;;;;;;;16.81;39.33;101265.34;5074827;28;20062;-67
2023/03/01 00:16:45;;;;;;;8.57;5.68;;;;;;;16.73;39.39;101265.88;5074714;28;20048;-67
2023/03/01 00:19:16;;;;;;;9.57;6.13;;;;;;;16.72;39.35;101274.06;5074742;28;20516;-67
2023/03/01 00:21:46;;;;;;;9.65;6.03;;;;;;;16.70;39.47;101276.88;5074646;28;20543;-67
2023/03/01 00:24:15;;;;;;;9.63;6.25;;;;;;;16.66;39.66;101282.53;5074647;28;20083;-67
2023/03/01 00:26:44;;;;;;;10.23;6.30;;;;;;;16.66;39.71;101282.53;5074851;28;20098;-66
2023/03/01 00:29:12;;;;;;;10.68;5.72;;;;;;;16.64;39.63;101279.09;5074583;28;20051;-67
2023/03/01 00:31:40;;;;;;;10.65;5.53;;;;;;;16.62;39.74;101284.59;5074427;28;20420;-67
2023/03/01 00:34:11;;;;;;;9.48;6.00;;;;;;;16.59;39.59;101282.09;5074535;28;20055;-67
2023/03/01 00:36:39;;;;;;;10.25;6.18;;;;;;;16.56;39.75;101291.25;5074420;28;20053;-66
2023/03/01 00:39:13;;;;;;;11.68;6.40;;;;;;;16.54;39.77;101290.50;5074289;28;20076;-66
2023/03/01 00:41:41;;;;;;;10.05;5.40;;;;;;;16.51;39.65;101282.63;5074411;28;20075;-66
2023/03/01 00:44:09;;;;;;;10.23;5.47;;;;;;;16.47;39.80;101285.63;5074334;28;20109;-67
2023/03/01 00:46:38;;;;;;;9.55;5.70;;;;;;;16.47;39.76;101291.88;5074314;28;20045;-67
2023/03/01 00:49:06;;;;;;;10.10;6.13;;;;;;;16.41;39.88;101278.84;5074237;28;20068;-67
2023/03/01 00:51:35;;;;;;;9.18;5.97;;;;;;;16.43;40.10;101292.19;5074275;28;20045;-67
2023/03/01 00:54:03;;;;;;;11.43;6.13;;;;;;;16.38;39.89;101291.63;5074496;28;20048;-67
2023/03/01 00:56:33;;;;;;;9.80;5.97;;;;;;;16.38;39.96;101292.50;5074237;28;20477;-67
2023/03/01 00:59:01;;;;;;;9.35;6.18;;;;;;;16.37;39.75;101295.28;5074035;28;20079;-66
2023/03/01 01:01:31;;;;;;;9.90;5.70;;;;;;;16.34;40.26;101285.59;5073896;28;20511;-66
2023/03/01 01:04:01;;;;;;;10.45;6.00;;;;;;;16.33;39.89;101289.28;5073928;28;20127;-66
2023/03/01 01:06:31;;;;;;;9.57;6.00;;;;;;;16.30;40.14;101297.53;5073987;28;20048;-67
2023/03/01 01:09:00;;;;;;;9.45;6.28;;;;;;;16.29;40.06;101287.72;5073922;28;20068;-67
2023/03/01 01:11:29;;;;;;;11.25;5.90;;;;;;;16.26;40.15;101282.56;5073823;28;20053;-67
2023/03/01 01:14:00;;;;;;;9.18;6.03;;;;;;;16.24;40.00;101290.75;5072485;28;20049;-67
2023/03/01 01:16:29;;;;;;;9.98;5.60;;;;;;;16.22;40.22;101275.69;5073907;28;20044;-67
2023/03/01 01:18:58;;;;;;;10.30;6.35;;;;;;;16.20;40.03;101274.91;5073738;28;20123;-66
2023/03/01 01:21:27;;;;;;;8.20;5.72;;;;;;;16.19;40.27;101275.88;5073700;28;20040;-66
2023/03/01 01:23:56;;;;;;;9.48;5.88;;;;;;;16.15;40.07;101264.44;5073587;28;20051;-66
2023/03/01 01:26:26;;;;;;;8.23;5.70;;;;;;;16.13;40.11;101255.63;5073545;28;20040;-66
2023/03/01 01:28:55;;;;;;;10.60;6.03;;;;;;;16.11;40.23;101253.97;5073390;28;20051;-66
2023/03/01 01:31:25;;;;;;;8.93;6.25;;;;;;;16.08;40.03;101251.50;5073684;28;20056;-66
2023/03/01 01:33:54;;;;;;;10.85;5.78;;;;;;;16.08;40.48;101246.13;5073281;28;20049;-66
2023/03/01 01:36:23;;;;;;;8.18;5.53;;;;;;;16.03;40.26;101233.00;5073417;28;20111;-67
2023/03/01 01:38:52;;;;;;;9.55;6.15;;;;;;;16.02;40.54;101237.50;5073139;28;20048;-66
2023/03/01 01:41:22;;;;;;;9.55;5.60;;;;;;;16.01;40.18;101233.06;5073264;28;20131;-66
2023/03/01 01:44:10;;;;;;;9.27;5.78;;;;;;;15.98;40.01;101230.59;5073361;28;20040;-66
2023/03/01 01:46:42;;;;;;;10.07;6.07;;;;;;;15.98;40.23;101240.50;5073176;28;20054;-66
2023/03/01 01:49:20;;;;;;;10.00;6.57;;;;;;;15.96;40.08;101243.28;5073185;28;20041;-66
2023/03/01 01:51:50;;;;;;;8.73;5.60;;;;;;;15.90;40.30;101232.94;5072973;28;20485;-66
2023/03/01 01:54:24;;;;;;;9.05;5.50;;;;;;;15.93;40.25;101239.97;5072968;28;20057;-67
2023/03/01 01:56:58;;;;;;;8.68;5.72;;;;;;;15.88;40.23;101224.09;5072920;28;20123;-66
2023/03/01 01:59:29;;;;;;;8.70;5.60;;;;;;;15.87;40.20;101225.06;5073202;28;20054;-66
2023/03/01 02:02:01;;;;;;;10.07;6.28;;;;;;;15.86;40.11;101223.34;5072806;28;20048;-67
2023/03/01 02:04:30;;;;;;;8.40;5.50;;;;;;;15.84;40.46;101225.28;5072781;28;20102;-66
2023/03/01 02:07:03;;;;;;;9.57;5.50;;;;;;;15.83;40.41;101228.94;5072749;28;20052;-66
2023/03/01 02:09:35;;;;;;;8.80;5.65;;;;;;;15.83;40.33;101222.72;5072886;28;20044;-66
2023/03/01 02:12:05;;;;;;;9.13;5.97;;;;;;;15.81;40.45;101228.16;5072576;28;20424;-66
2023/03/01 02:14:33;;;;;;;8.95;5.57;;;;;;;15.79;40.50;101219.34;5072397;28;20048;-66
2023/03/01 02:17:03;;;;;;;8.65;5.93;;;;;;;15.78;40.25;101224.81;5072562;28;20040;-66
2023/03/01 02:19:43;;;;;;;8.02;5.13;;;;;;;15.75;40.31;101212.44;5072303;28;20045;-66
2023/03/01 02:22:22;;;;;;;9.70;6.22;;;;;;;15.72;40.28;101218.00;5072674;28;20037;-66
2023/03/01 02:25:03;;;;;;;9.27;6.00;;;;;;;15.73;40.35;101220.63;5072037;28;20052;-67
2023/03/01 02:27:39;;;;;;;9.07;5.65;;;;;;;15.71;40.67;101218.97;5072571;28;20068;-66
2023/03/01 02:30:12;;;;;;;10.07;5.95;;;;;;;15.70;40.73;101215.44;5072550;28;20071;-66
2023/03/01 02:32:41;;;;;;;8.75;5.55;;;;;;;15.68;40.42;101209.28;5072243;28;20049;-66
2023/03/01 02:35:13;;;;;;;9.60;6.07;;;;;;;15.66;40.63;101203.16;5072211;28;20119;-66
2023/03/01 02:37:43;;;;;;;9.13;5.70;;;;;;;15.65;40.45;101200.59;5071912;28;20056;-66
2023/03/01 02:40:16;;;;;;;9.57;5.70;;;;;;;15.64;40.57;101199.72;5071671;28;20094;-66
2023/03/01 02:42:51;;;;;;;9.32;5.70;;;;;;;15.61;40.70;101193.66;5072114;28;20098;-66
2023/03/01 02:45:21;;;;;;;8.65;5.65;;;;;;;15.59;40.65;101192.88;5067329;28;20045;-65
2023/03/01 02:47:49;;;;;;;8.60;5.40;;;;;;;15.59;40.58;101196.44;5052119;28;20052;-66
2023/03/01 02:50:36;;;;;;;7.35;5.32;;;;;;;15.58;40.46;101188.47;5051874;28;20056;-66
2023/03/01 02:53:12;;;;;;;8.52;5.25;;;;;;;15.55;40.63;101191.38;5051884;28;20124;-67
2023/03/01 02:55:41;;;;;;;8.73;5.80;;;;;;;15.55;40.48;101183.31;5067822;28;20044;-66
2023/03/01 02:58:09;;;;;;;8.98;5.75;;;;;;;15.53;40.68;101177.13;5071920;28;20040;-65
2023/03/01 03:00:46;;;;;;;9.52;5.63;;;;;;;15.53;40.55;101179.81;5104124;28;20044;-67
2023/03/01 03:03:16;;;;;;;9.32;5.68;;;;;;;15.50;40.35;101178.22;5071843;28;20048;-65
2023/03/01 03:05:44;;;;;;;8.57;5.88;;;;;;;15.51;40.52;101189.81;5071812;28;20044;-67
2023/03/01 03:08:12;;;;;;;9.55;5.82;;;;;;;15.49;40.71;101183.69;5071839;28;20113;-66
2023/03/01 03:10:42;;;;;;;8.50;5.70;;;;;;;15.43;40.41;101180.44;5071690;28;20055;-67
2023/03/01 03:13:13;;;;;;;8.93;5.55;;;;;;;15.46;40.66;101191.00;5071633;28;20048;-66
2023/03/01 03:15:43;;;;;;;7.72;5.43;;;;;;;15.43;40.66;101184.94;5071697;28;20047;-65
2023/03/01 03:18:14;;;;;;;8.45;5.68;;;;;;;15.43;40.37;101182.25;5071922;28;20102;-66
2023/03/01 03:20:44;;;;;;;8.93;5.30;;;;;;;15.41;40.51;101182.38;5071646;28;20496;-67
2023/03/01 03:23:14;;;;;;;8.07;4.93;;;;;;;15.40;40.78;101179.78;5054764;28;20047;-66
2023/03/01 03:25:42;;;;;;;8.00;5.05;;;;;;;15.39;40.55;101176.22;5051390;28;20059;-66
2023/03/01 03:28:10;;;;;;;8.80;5.47;;;;;;;15.38;40.62;101173.66;5051642;28;20136;-66
2023/03/01 03:30:42;;;;;;;7.70;4.80;;;;;;;15.38;40.63;101176.34;5051746;28;20049;-66
2023/03/01 03:33:12;;;;;;;8.77;5.53;;;;;;;15.36;40.39;101173.75;5051547;28;20450;-67
2023/03/01 03:35:42;;;;;;;7.68;5.75;;;;;;;15.33;40.48;101176.63;5051487;28;20448;-67
2023/03/01 03:38:16;;;;;;;9.15;5.63;;;;;;;15.33;40.54;101176.63;5054822;28;20416;-67
2023/03/01 03:40:47;;;;;;;8.18;5.50;;;;;;;15.32;40.72;101180.28;5055533;28;20049;-67
2023/03/01 03:43:16;;;;;;;8.32;5.65;;;;;;;15.31;40.36;101175.88;5055600;28;20045;-67
2023/03/01 03:45:47;;;;;;;7.75;5.45;;;;;;;15.30;40.36;101178.66;5055431;28;20079;-67
2023/03/01 03:48:15;;;;;;;7.40;5.10;;;;;;;15.28;40.30;101173.38;5055332;28;20049;-67
2023/03/01 03:50:49;;;;;;;9.70;6.05;;;;;;;15.28;40.33;101181.44;5055275;28;20099;-67
2023/03/01 03:53:17;;;;;;;8.93;5.57;;;;;;;15.24;40.59;101169.16;5055089;28;20072;-66
2023/03/01 03:55:48;;;;;;;7.80;5.60;;;;;;;15.25;40.51;101175.41;5055191;28;20055;-66
2023/03/01 03:58:19;;;;;;;7.72;5.43;;;;;;;15.24;40.48;101181.72;5055495;28;20739;-66
2023/03/01 04:00:51;;;;;;;8.95;5.60;;;;;;;15.22;40.62;101176.47;5055413;28;20045;-66
2023/03/01 04:03:20;;;;;;;8.48;5.72;;;;;;;15.21;40.64;101172.06;5055045;28;20049;-66
2023/03/01 04:05:50;;;;;;;9.25;5.45;;;;;;;15.18;40.60;101178.50;5055062;28;20045;-65
2023/03/01 04:08:20;;;;;;;8.68;5.47;;;;;;;15.19;40.60;101184.72;5054911;28;20508;-67
2023/03/01 04:10:49;;;;;;;8.13;5.47;;;;;;;15.16;40.66;101171.50;5059334;28;20064;-65
2023/03/01 04:13:20;;;;;;;9.75;5.68;;;;;;;15.15;40.61;101180.50;5074815;28;20069;-66
2023/03/01 04:15:51;;;;;;;8.77;5.80;;;;;;;15.15;40.54;101175.13;5074701;28;20048;-67
2023/03/01 04:18:21;;;;;;;7.60;5.32;;;;;;;15.13;40.62;101171.69;5074762;28;20051;-65
2023/03/01 04:20:51;;;;;;;8.80;5.15;;;;;;;15.12;40.51;101175.34;5074990;28;20045;-67
2023/03/01 04:23:21;;;;;;;7.47;5.25;;;;;;;15.12;40.74;101178.03;5074757;28;20397;-65
2023/03/01 04:25:53;;;;;;;7.90;5.18;;;;;;;15.12;40.66;101183.41;5074589;28;20041;-65
2023/03/01 04:28:24;;;;;;;7.90;5.60;;;;;;;15.10;40.72;101183.50;5074648;28;20045;-66
2023/03/01 04:30:54;;;;;;;7.22;4.72;;;;;;;15.10;40.78;101179.94;5074548;28;20553;-66
2023/03/01 04:33:23;;;;;;;8.80;5.25;;;;;;;15.07;41.13;101181.03;5074490;28;20097;-66
2023/03/01 04:35:52;;;;;;;7.45;5.50;;;;;;;15.06;40.55;101175.75;5074512;28;20489;-66
2023/03/01 04:38:21;;;;;;;7.72;5.10;;;;;;;15.07;40.95;101181.03;5074360;28;20072;-66
2023/03/01 04:40:50;;;;;;;9.73;5.00;;;;;;;15.10;41.10;101188.00;5074433;28;20492;-66
2023/03/01 04:43:18;;;;;;;8.35;4.97;;;;;;;15.14;41.51;101179.63;5074360;28;20055;-67
2023/03/01 04:45:46;;;;;;;6.72;4.68;;;;;;;15.25;41.68;101180.75;5074349;28;20815;-66
2023/03/01 04:48:16;;;;;;;7.45;4.97;;;;;;;15.35;41.63;101177.41;5074098;28;20439;-66
2023/03/01 04:50:44;;;;;;;7.57;4.90;;;;;;;15.46;41.64;101174.00;5074295;28;20474;-66
2023/03/01 04:53:12;;;;;;;7.32;4.80;;;;;;;15.58;41.52;101169.66;5074230;28;20044;-66
2023/03/01 04:55:40;;;;;;;7.35;4.90;;;;;;;15.67;41.51;101161.00;5074167;28;20044;-66
2023/03/01 04:58:08;;;;;;;8.15;5.63;;;;;;;15.79;41.31;101160.16;5074233;28;20066;-66
2023/03/01 05:00:37;;;;;;;6.63;4.63;;;;;;;15.90;41.27;101168.38;5074220;28;20036;-66
2023/03/01 05:03:05;;;;;;;7.40;5.20;;;;;;;16.00;40.94;101161.38;5074155;28;20105;-66
2023/03/01 05:05:37;;;;;;;7.07;4.97;;;;;;;16.14;40.98;101164.97;5073954;28;20040;-66
2023/03/01 05:08:08;;;;;;;8.48;5.10;;;;;;;16.26;40.85;101159.59;5073967;28;20067;-67
2023/03/01 05:10:39;;;;;;;8.52;5.40;;;;;;;16.38;40.86;101157.00;5073961;28;20136;-67
2023/03/01 05:13:07;;;;;;;7.43;5.07;;;;;;;16.49;40.59;101163.34;5074084;28;20411;-67
2023/03/01 05:15:36;;;;;;;7.13;4.82;;;;;;;16.57;40.54;101149.34;5073752;28;20048;-66
2023/03/01 05:18:07;;;;;;;7.13;5.05;;;;;;;16.68;40.49;101156.66;5073831;28;20079;-67
2023/03/01 05:20:37;;;;;;;8.30;5.28;;;;;;;16.75;40.39;101155.31;5073751;28;20044;-67
2023/03/01 05:23:06;;;;;;;8.70;5.32;;;;;;;16.81;40.22;101154.88;5073652;28;20052;-67
2023/03/01 05:25:39;;;;;;;8.13;5.22;;;;;;;16.81;40.20;101158.44;5073578;28;20509;-66
2023/03/01 05:28:12;;;;;;;8.32;5.38;;;;;;;16.86;40.14;101166.16;5053695;28;20497;-67
2023/03/01 05:30:41;;;;;;;8.27;5.00;;;;;;;16.85;40.04;101167.13;5053774;28;20045;-66
2023/03/01 05:33:13;;;;;;;7.68;5.13;;;;;;;16.85;40.07;101164.44;5053521;28;20286;-66
2023/03/01 05:35:44;;;;;;;7.35;5.22;;;;;;;16.81;40.21;101161.13;5053551;28;20505;-66
2023/03/01 05:38:14;;;;;;;7.13;5.03;;;;;;;16.82;40.16;101173.63;5053353;28;20513;-66
2023/03/01 05:40:43;;;;;;;7.50;5.18;;;;;;;16.81;40.25;101171.91;5053340;28;20048;-67
2023/03/01 05:43:12;;;;;;;7.13;4.88;;;;;;;16.78;40.37;101171.25;5053210;28;20045;-66
2023/03/01 05:45:41;;;;;;;9.27;5.38;;;;;;;16.78;40.24;101184.72;5053108;28;20045;-66
2023/03/01 05:48:10;;;;;;;7.30;5.18;;;;;;;16.74;40.28;101175.13;5053147;28;20049;-66
2023/03/01 05:50:41;;;;;;;7.32;4.80;;;;;;;16.72;40.22;101182.47;5053213;28;20072;-66
2023/03/01 05:53:14;;;;;;;7.97;4.82;;;;;;;16.68;40.15;101176.41;5053091;28;20052;-66
2023/03/01 05:55:44;;;;;;;7.53;5.05;;;;;;;16.66;40.24;101180.16;5052911;28;20052;-66
2023/03/01 05:58:14;;;;;;;7.60;5.15;;;;;;;16.64;40.23;101184.81;5052731;28;20134;-66
2023/03/01 06:00:44;;;;;;;8.70;5.20;;;;;;;16.61;40.17;101185.91;5051997;28;20045;-66
2023/03/01 06:03:13;;;;;;;6.65;4.70;;;;;;;16.58;40.14;101184.25;5053087;28;20053;-66
2023/03/01 06:05:42;;;;;;;9.13;5.50;;;;;;;16.52;40.06;101182.00;5052880;28;20107;-67
2023/03/01 06:08:13;;;;;;;8.57;5.22;;;;;;;16.51;40.15;101180.31;5052788;28;20448;-67
2023/03/01 06:10:41;;;;;;;7.22;5.20;;;;;;;16.47;40.20;101184.16;5052703;28;20104;-66
2023/03/01 06:13:09;;;;;;;8.23;5.13;;;;;;;16.45;40.19;101183.41;5052538;28;20051;-67
2023/03/01 06:15:37;;;;;;;7.57;5.30;;;;;;;16.43;40.17;101188.03;5052394;28;20045;-67
2023/03/01 06:18:05;;;;;;;7.50;5.35;;;;;;;16.41;39.68;101191.81;5052469;28;20044;-66
2023/03/01 06:20:35;;;;;;;8.52;5.80;;;;;;;16.36;39.80;101183.19;5052519;28;20055;-66
2023/03/01 06:23:03;;;;;;;8.13;5.45;;;;;;;16.33;40.12;101188.78;5052439;28;20041;-66
2023/03/01 06:25:33;;;;;;;7.80;5.00;;;;;;;16.29;40.25;101178.22;5052234;28;20083;-66
2023/03/01 06:28:01;;;;;;;7.93;4.95;;;;;;;16.27;40.30;101190.94;5052356;28;20045;-65
2023/03/01 06:30:30;;;;;;;7.93;5.43;;;;;;;16.24;40.41;101192.97;5052188;28;20052;-66
2023/03/01 06:33:04;;;;;;;8.05;5.38;;;;;;;16.18;40.31;101190.69;5052347;28;20045;-66
2023/03/01 06:35:32;;;;;;;8.52;5.22;;;;;;;16.18;40.40;101193.41;5051900;28;20052;-66
2023/03/01 06:38:05;;;;;;;6.47;4.60;;;;;;;16.14;40.44;101191.91;5052124;28;20061;-66
2023/03/01 06:40:35;;;;;;;7.30;4.80;;;;;;;16.13;40.46;101195.56;5052348;28;20139;-67
2023/03/01 06:43:04;;;;;;;8.15;5.07;;;;;;;16.12;40.57;101199.22;5052007;28;20332;-68
2023/03/01 06:45:32;;;;;;;7.70;5.00;;;;;;;16.08;40.58;101197.69;5051676;28;20057;-68
2023/03/01 06:48:05;;;;;;;8.48;5.57;;;;;;;16.06;40.36;101202.31;5053380;28;20401;-67
2023/03/01 06:50:34;;;;;;;8.65;5.07;;;;;;;16.00;40.88;101201.75;5054526;28;20450;-68
2023/03/01 06:53:03;;;;;;;8.27;5.18;;;;;;;16.02;40.70;101207.91;5055107;28;20049;-67
2023/03/01 06:55:32;;;;;;;8.18;5.07;;;;;;;16.00;40.84;101219.72;5054708;28;20048;-68
2023/03/01 06:58:03;;;;;;;8.60;5.40;;;;;;;15.94;40.89;101212.09;5052403;28;20045;-67
2023/03/01 07:00:32;;;;;;;7.57;5.15;;;;;;;15.96;40.98;101215.53;5051943;28;20049;-67
2023/03/01 07:03:01;;;;;;;10.90;5.65;;;;;;;15.92;40.85;101214.00;5051780;28;20045;-67
2023/03/01 07:05:30;;;;;;;8.23;5.22;;;;;;;15.87;41.15;101206.25;5051537;28;20128;-68
2023/03/01 07:07:59;;;;;;;9.52;5.03;;;;;;;15.88;41.25;101202.59;5051817;28;20055;-68
2023/03/01 07:10:28;;;;;;;9.05;5.05;;;;;;;15.86;41.14;101204.53;5051647;28;20051;-69
2023/03/01 07:12:57;;;;;;;7.28;4.88;;;;;;;15.84;41.26;101200.22;5051393;28;20041;-70
2023/03/01 07:15:27;;;;;;;8.10;5.32;;;;;;;15.80;41.35;101204.94;5051542;28;20154;-68
2023/03/01 07:17:57;;;;;;;7.80;4.78;;;;;;;15.81;41.37;101209.34;5052640;28;20045;-69
2023/03/01 07:20:26;;;;;;;8.88;5.00;;;;;;;15.78;41.25;101198.78;5051524;28;20125;-69
2023/03/01 07:22:56;;;;;;;7.95;4.90;;;;;;;15.75;41.50;101201.69;5051472;28;20049;-69
2023/03/01 07:25:24;;;;;;;9.02;5.28;;;;;;;15.76;41.52;101191.78;5062119;28;20041;-69
2023/03/01 07:27:53;;;;;;;7.30;4.45;;;;;;;15.75;41.60;101201.69;5071319;28;20044;-68
2023/03/01 07:30:22;;;;;;;7.43;4.65;;;;;;;15.72;41.91;101196.50;5071432;28;20404;-69
2023/03/01 07:32:54;;;;;;;8.40;4.85;;;;;;;15.71;41.75;101201.00;5071725;28;20052;-69
2023/03/01 07:35:23;;;;;;;7.90;4.70;;;;;;;15.69;41.75;101202.94;5071223;28;20482;-69
2023/03/01 07:37:51;;;;;;;7.55;4.65;;;;;;;15.69;41.72;101199.41;5071021;28;20181;-68
2023/03/01 07:40:21;;;;;;;7.82;4.97;;;;;;;15.67;41.69;101198.66;5071441;28;20052;-68
2023/03/01 07:42:50;;;;;;;7.93;4.65;;;;;;;15.65;41.64;101197.91;5066398;28;20075;-68
2023/03/01 07:45:18;;;;;;;9.13;5.00;;;;;;;15.66;41.84;101196.94;5060022;28;20059;-68
2023/03/01 07:47:47;;;;;;;7.78;5.13;;;;;;;15.62;41.72;101190.00;5051342;28;20458;-68
2023/03/01 07:50:17;;;;;;;7.60;4.88;;;;;;;15.64;41.83;101198.84;5051307;28;20056;-69
2023/03/01 07:52:46;;;;;;;7.60;4.80;;;;;;;15.63;41.79;101197.09;5051251;28;20377;-70
2023/03/01 07:55:15;;;;;;;7.97;4.82;;;;;;;15.62;41.93;101192.69;5051224;28;20462;-70
2023/03/01 07:57:43;;;;;;;12.05;4.95;;;;;;;15.61;41.96;101188.28;5051200;28;20076;-68
2023/03/01 08:00:13;;;;;;;7.88;4.97;;;;;;;15.56;42.05;101174.28;5051194;28;20045;-68
2023/03/01 08:02:47;;;;;;;7.45;4.90;;;;;;;15.59;42.23;101184.81;5051133;28;20041;-68
2023/03/01 08:05:17;;;;;;;7.93;4.88;;;;;;;15.55;42.05;101178.78;5051493;28;20068;-67
2023/03/01 08:07:45;;;;;;;8.77;4.97;;;;;;;15.55;42.16;101177.94;5051228;28;20063;-69
2023/03/01 08:10:15;;;;;;;7.63;4.85;;;;;;;15.55;42.00;101183.31;5049914;28;20049;-68
2023/03/01 08:12:43;;;;;;;7.03;4.80;;;;;;;15.55;42.17;101183.31;5049783;28;20049;-69
2023/03/01 08:15:11;;;;;;;7.93;4.90;;;;;;;15.55;42.08;101183.31;5049846;28;20049;-68
2023/03/01 08:17:40;;;;;;;8.85;4.50;;;;;;;15.56;42.22;101185.03;5050471;28;20059;-69
2023/03/01 08:20:12;;;;;;;9.20;4.65;;;;;;;15.52;42.18;101178.09;5049807;28;20095;-69
2023/03/01 08:22:43;;;;;;;10.10;4.63;;;;;;;15.54;42.28;101181.53;5051429;28;20055;-68
2023/03/01 08:25:11;;;;;;;9.30;4.78;;;;;;;15.53;42.25;101171.75;5054632;28;20586;-69
2023/03/01 08:27:40;;;;;;;9.40;4.90;;;;;;;15.53;42.39;101172.63;5054733;28;20084;-70
2023/03/01 08:30:11;;;;;;;8.05;5.10;;;;;;;15.54;42.36;101173.47;5054797;28;20472;-69
2023/03/01 08:32:40;;;;;;;10.38;4.80;;;;;;;15.52;42.26;101167.34;5054488;28;20044;-69
2023/03/01 08:35:09;;;;;;;7.72;4.90;;;;;;;15.53;42.28;101169.94;5054305;28;20045;-68
2023/03/01 08:37:37;;;;;;;8.82;4.80;;;;;;;15.53;42.23;101169.06;5054174;28;20096;-68
2023/03/01 08:40:10;;;;;;;8.38;5.13;;;;;;;15.53;42.22;101163.69;5054746;28;20235;-68
2023/03/01 08:42:39;;;;;;;7.80;4.67;;;;;;;15.53;42.33;101164.56;5054337;28;20560;-69
2023/03/01 08:45:08;;;;;;;9.27;4.90;;;;;;;15.53;42.32;101155.63;5054313;28;20052;-68
2023/03/01 08:47:37;;;;;;;8.02;4.85;;;;;;;15.53;42.37;101155.63;5054147;28;20126;-68
2023/03/01 08:50:07;;;;;;;8.65;4.82;;;;;;;15.54;42.29;101160.03;5054553;28;20044;-69
2023/03/01 08:52:35;;;;;;;8.23;4.78;;;;;;;15.53;42.38;101153.78;5054137;28;20110;-68
2023/03/01 08:55:04;;;;;;;7.03;4.60;;;;;;;15.53;42.17;101147.56;5054039;28;20453;-68
2023/03/01 08:57:33;;;;;;;8.05;4.50;;;;;;;15.54;42.15;101138.53;5053983;28;20045;-69
2023/03/01 09:00:08;;;;;;;10.68;5.10;;;;;;;15.57;42.12;101146.41;5054051;28;20052;-69
2023/03/01 09:02:38;;;;;;;9.45;5.00;;;;;;;15.57;42.02;101139.19;5054135;28;20053;-69
2023/03/01 09:05:07;;;;;;;8.98;4.85;;;;;;;15.58;42.29;101146.31;5054116;28;20041;-69
2023/03/01 09:07:35;;;;;;;8.27;4.88;;;;;;;15.56;42.06;101142.00;5054037;28;20045;-69
2023/03/01 09:10:04;;;;;;;9.45;4.55;;;;;;;15.57;41.96;101152.66;5054022;28;20383;-69
2023/03/01 09:12:36;;;;;;;8.10;4.45;;;;;;;15.59;42.01;101144.47;5053955;28;20049;-69
2023/03/01 09:15:04;;;;;;;12.07;5.00;;;;;;;15.60;41.75;101132.75;5053793;28;20075;-69
2023/03/01 09:17:33;;;;;;;7.20;4.75;;;;;;;15.61;41.75;101134.50;5053885;28;20085;-69
2023/03/01 09:20:05;;;;;;;8.57;4.70;;;;;;;15.58;41.93;101127.47;5053596;28;20053;-69
2023/03/01 09:22:34;;;;;;;7.18;4.53;;;;;;;15.63;41.96;101127.19;5053802;28;20045;-69
2023/03/01 09:25:03;;;;;;;10.18;5.55;;;;;;;15.61;41.58;101118.38;5053511;28;20045;-68
2023/03/01 09:27:31;;;;;;;8.13;4.53;;;;;;;15.66;41.54;101116.25;5053501;28;20087;-69
2023/03/01 09:30:01;;;;;;;9.10;5.47;;;;;;;15.67;41.55;101109.91;5053304;28;20482;-69
2023/03/01 09:32:33;;;;;;;8.98;5.32;;;;;;;15.68;41.60;101106.25;5053322;28;20045;-69
2023/03/01 09:35:07;;;;;;;8.55;4.50;;;;;;;15.69;41.61;101103.44;5052262;28;20199;-70
2023/03/01 09:37:37;;;;;;;8.63;4.88;;;;;;;15.71;41.43;101111.41;5052981;28;20045;-69
2023/03/01 09:40:15;;;;;;;7.00;4.40;;;;;;;15.72;41.42;101105.06;5051683;28;20441;-68
2023/03/01 09:42:56;;;;;;;9.05;4.90;;;;;;;15.74;41.55;101087.88;5053146;28;20526;-69
2023/03/01 09:45:35;;;;;;;9.30;4.93;;;;;;;15.77;42.03;101086.78;5053156;28;20410;-68
2023/03/01 09:48:09;;;;;;;7.78;4.60;;;;;;;15.80;42.19;101085.69;5053075;28;20437;-69
2023/03/01 09:50:42;;;;;;;6.95;4.40;;;;;;;15.81;42.19;101087.41;5052938;28;20448;-68
2023/03/01 09:53:16;;;;;;;8.50;4.77;;;;;;;15.82;42.25;101081.94;5053142;28;20049;-69
2023/03/01 09:55:47;;;;;;;6.85;4.50;;;;;;;15.85;42.38;101078.19;5052884;28;20072;-69
2023/03/01 09:58:34;;;;;;;7.10;4.53;;;;;;;15.87;42.36;101079.81;5052962;28;20076;-70
2023/03/01 10:01:17;;;;;;;7.90;4.60;;;;;;;15.89;42.16;101075.16;5052803;28;20059;-69
2023/03/01 10:04:00;;;;;;;6.18;4.30;;;;;;;15.92;42.26;101074.09;5053110;28;20049;-70
2023/03/01 10:06:29;;;;;;;9.23;4.15;;;;;;;15.94;42.00;101083.78;5052958;28;20098;-68
2023/03/01 10:09:10;;;;;;;7.93;4.50;;;;;;;15.97;41.93;101080.88;5052681;28;20045;-69
2023/03/01 10:11:42;;;;;;;9.65;4.78;;;;;;;16.00;41.99;101083.34;5052719;28;20462;-69
2023/03/01 10:14:32;;;;;;;6.43;4.60;;;;;;;16.00;42.30;101072.59;5052830;28;20493;-69
2023/03/01 10:17:04;;;;;;;7.30;4.63;;;;;;;16.08;42.17;101060.44;5052556;28;20148;-69
2023/03/01 10:19:40;;;;;;;6.35;4.50;;;;;;;16.11;42.28;101062.91;5052452;28;20045;-70
2023/03/01 10:22:15;;;;;;;8.75;4.70;;;;;;;16.15;42.37;101053.66;5052564;28;20056;-69
2023/03/01 10:24:44;;;;;;;7.95;4.55;;;;;;;16.19;42.31;101049.75;5052505;28;20041;-69
2023/03/01 10:27:20;;;;;;;7.43;4.55;;;;;;;16.24;42.23;101053.00;5052642;28;20071;-69
2023/03/01 10:29:56;;;;;;;6.50;4.20;;;;;;;16.26;42.34;101040.28;5052654;28;20033;-69
2023/03/01 10:32:26;;;;;;;8.10;4.53;;;;;;;16.31;42.33;101043.53;5052162;28;20072;-69
2023/03/01 10:34:56;;;;;;;8.15;4.60;;;;;;;16.36;42.22;101035.13;5052127;28;20409;-69
2023/03/01 10:37:27;;;;;;;6.60;4.30;;;;;;;16.38;42.34;101034.03;5052118;28;20051;-69
2023/03/01 10:40:05;;;;;;;7.13;4.50;;;;;;;16.43;42.25;101026.50;5052182;28;20543;-69
2023/03/01 10:42:37;;;;;;;6.53;4.25;;;;;;;16.48;42.31;101035.06;5052097;28;20047;-70
2023/03/01 10:45:18;;;;;;;6.40;4.38;;;;;;;16.51;42.16;101018.72;5050632;28;20065;-69
2023/03/01 10:48:13;;;;;;;6.90;4.25;;;;;;;16.56;42.19;101010.28;5051971;28;20417;-70
2023/03/01 10:50:42;;;;;;;8.82;4.30;;;;;;;16.62;41.99;101009.00;5051861;28;20056;-68
2023/03/01 10:53:24;;;;;;;9.82;4.43;;;;;;;16.64;42.04;101005.19;5051661;28;20057;-69
2023/03/01 10:56:00;;;;;;;6.88;4.57;;;;;;;16.68;41.97;100997.75;5051841;28;20044;-70
2023/03/01 10:58:29;;;;;;;6.38;4.18;;;;;;;16.69;41.99;101000.34;5051589;28;20087;-70
2023/03/01 11:01:00;;;;;;;6.15;4.30;;;;;;;16.72;41.86;100999.28;5051950;28;20072;-68
2023/03/01 11:03:31;;;;;;;7.68;4.45;;;;;;;16.75;41.77;100994.53;5051824;28;20044;-69
2023/03/01 11:06:03;;;;;;;6.63;4.50;;;;;;;16.79;41.87;100981.69;5051667;28;20063;-70
2023/03/01 11:08:35;;;;;;;6.32;4.05;;;;;;;16.85;41.76;100989.31;5051947;28;20073;-70
2023/03/01 11:11:24;;;;;;;6.90;4.43;;;;;;;16.89;41.84;100980.03;5051875;28;20486;-69
2023/03/01 11:13:58;;;;;;;7.05;4.20;;;;;;;16.94;41.76;100985.94;5051661;28;20051;-70
2023/03/01 11:16:30;;;;;;;6.43;4.18;;;;;;;16.97;41.74;100983.00;5051585;28;20049;-70
2023/03/01 11:19:15;;;;;;;6.43;4.33;;;;;;;17.03;41.80;100971.75;5051670;28;20090;-69
2023/03/01 11:21:53;;;;;;;7.70;4.05;;;;;;;17.09;41.64;100965.91;5051621;28;20049;-69
2023/03/01 11:24:35;;;;;;;7.32;4.03;;;;;;;17.16;41.61;100968.97;5051599;28;20045;-70
2023/03/01 11:27:07;;;;;;;7.13;4.03;;;;;;;17.23;41.62;100966.69;5051656;28;20107;-68
2023/03/01 11:29:41;;;;;;;7.80;4.38;;;;;;;17.26;41.62;100961.91;5051512;28;20118;-70
2023/03/01 11:32:17;;;;;;;6.50;4.10;;;;;;;17.30;41.52;100957.16;5051563;28;20080;-69
2023/03/01 11:34:52;;;;;;;5.75;3.80;;;;;;;17.31;41.51;100959.72;5051370;28;20091;-69
2023/03/01 11:37:33;;;;;;;6.15;3.90;;;;;;;17.33;41.45;100957.78;5051226;28;20045;-69
2023/03/01 11:40:14;;;;;;;7.72;3.90;;;;;;;17.37;41.48;100947.59;5051232;28;20049;-69
2023/03/01 11:43:00;;;;;;;7.45;3.85;;;;;;;17.43;41.47;100960.63;5051424;28;20127;-69